Terminal Aerodrome Forecast
Issued by NWS Newport/Morehead City, NC

Home | Current Version | Previous Version | Text Only | Print | Product List | Glossary Off
Versions: 1 2 3 4 5 6 7 8 9 10 11 12 13 14 15 16 17 18

000
FTUS42 KMHX 032320
TAFEWN
TAF
KEWN 032320Z 0400/0424 VRB03KT P6SM SCT060 SCT250
     FM040600 00000KT 4SM BR SKC
     FM040800 00000KT 2SM BR BKN005
     FM041300 05005KT P6SM SCT050=

USA.gov is the U.S. government's official web portal to all federal, state and local government web resources and services.